Time;durP1;ratioP1;P1;durP2;ratioP2;P2;SDS_P1;SDS_P2;PMS_P1;PMS_P2;Temp;Humidity;BMP_temperature;BMP_pressure;BME280_temperature;BME280_humidity;BME280_pressure;Samples;Min_cycle;Max_cycle;Signal;HPM_P1;HPM_P2
2022/06/14 00:00:53;;;;;;;11.90;8.80;;;;;;;;;;5039766;28;20050;-83
2022/06/14 00:03:43;;;;;;;9.93;8.80;;;;;;;;;;5039149;28;20064;-84
2022/06/14 00:06:31;;;;;;;10.90;8.63;;;;;;;;;;5029392;28;20045;-84
2022/06/14 00:09:15;;;;;;;11.55;9.30;;;;;;;;;;5046995;28;20383;-84
2022/06/14 00:12:01;;;;;;;11.70;9.57;;;;;;;;;;5039287;28;20045;-84
2022/06/14 00:14:46;;;;;;;12.23;8.93;;;;;;;;;;5028913;28;20045;-84
2022/06/14 00:17:31;;;;;;;12.50;8.82;;;;;;;;;;5044138;28;20037;-84
2022/06/14 00:20:16;;;;;;;10.77;8.35;;;;;;;;;;5038072;28;20037;-84
2022/06/14 00:23:02;;;;;;;9.90;8.95;;;;;;;;;;5038512;28;20046;-83
2022/06/14 00:25:53;;;;;;;11.98;8.98;;;;;;;;;;5043856;28;20475;-84
2022/06/14 00:28:41;;;;;;;12.73;8.77;;;;;;;;;;5030086;28;20049;-84
2022/06/14 00:31:28;;;;;;;10.20;8.70;;;;;;;;;;5038959;28;20034;-84
2022/06/14 00:34:13;;;;;;;11.57;8.82;;;;;;;;;;5046143;28;20053;-84
2022/06/14 00:36:59;;;;;;;13.10;8.93;;;;;;;;;;5053696;28;20041;-84
2022/06/14 00:39:45;;;;;;;10.80;8.75;;;;;;;;;;5043379;28;20430;-84
2022/06/14 00:42:32;;;;;;;10.90;9.43;;;;;;;;;;5042362;28;20053;-84
2022/06/14 00:45:18;;;;;;;9.60;8.52;;;;;;;;;;5045697;28;20053;-83
2022/06/14 00:48:12;;;;;;;12.93;9.25;;;;;;;;;;5037095;28;20049;-84
2022/06/14 00:50:58;;;;;;;;;;;;;;;;;;5037569;28;20049;-83
2022/06/14 00:53:52;;;;;;;13.40;8.30;;;;;;;;;;5041037;28;19917;-83
2022/06/14 00:57:06;;;;;;;11.90;9.02;;;;;;;;;;5047122;28;20045;-83
2022/06/14 00:59:57;;;;;;;11.38;9.48;;;;;;;;;;5035915;28;20049;-83
2022/06/14 01:02:52;;;;;;;13.02;9.32;;;;;;;;;;5039739;28;20041;-83
2022/06/14 01:06:08;;;;;;;12.82;9.55;;;;;;;;;;5038587;28;20490;-83
2022/06/14 01:09:14;;;;;;;;;;;;;;;;;;5040607;28;20041;-83
2022/06/14 01:12:04;;;;;;;;;;;;;;;;;;5047218;28;19913;-83
2022/06/14 01:15:17;;;;;;;8.30;5.70;;;;;;;;;;5038027;28;19917;-83
2022/06/14 01:18:07;;;;;;;10.20;5.55;;;;;;;;;;5037690;28;20061;-83
2022/06/14 01:20:53;;;;;;;7.50;5.50;;;;;;;;;;5043867;28;20053;-82
2022/06/14 01:23:39;;;;;;;8.02;5.95;;;;;;;;;;5036060;28;20041;-83
2022/06/14 01:26:27;;;;;;;6.95;6.15;;;;;;;;;;5036643;28;20463;-83
2022/06/14 01:29:13;;;;;;;7.68;6.60;;;;;;;;;;5047456;28;20045;-82
2022/06/14 01:32:01;;;;;;;8.70;6.97;;;;;;;;;;5039232;28;20049;-84
2022/06/14 01:34:55;;;;;;;7.68;6.78;;;;;;;;;;5042590;28;20045;-83
2022/06/14 01:37:41;;;;;;;13.68;7.07;;;;;;;;;;5042882;28;20038;-84
2022/06/14 01:40:57;;;;;;;8.05;7.30;;;;;;;;;;5050516;28;20037;-84
2022/06/14 01:43:53;;;;;;;83.43;38.03;;;;;;;;;;5034941;28;20037;-83
2022/06/14 01:46:59;;;;;;;19.90;14.43;;;;;;;;;;5038101;28;20029;-83
2022/06/14 01:53:37;;;;;;;17.00;9.20;;;;;;;;;;5039860;28;20037;-83
2022/06/14 01:56:49;;;;;;;21.00;14.93;;;;;;;;;;5020613;28;20402;-84
2022/06/14 01:59:59;;;;;;;30.13;19.40;;;;;;;;;;5026602;28;20049;-83
2022/06/14 02:06:15;;;;;;;15.20;9.00;;;;;;;;;;5022648;28;20045;-84
2022/06/14 02:09:10;;;;;;;19.17;11.10;;;;;;;;;;5043451;28;20041;-83
2022/06/14 02:11:59;;;;;;;15.27;10.82;;;;;;;;;;5036199;28;20046;-83
2022/06/14 02:14:51;;;;;;;13.43;9.88;;;;;;;;;;5034112;28;20398;-84
2022/06/14 02:17:52;;;;;;;11.40;8.77;;;;;;;;;;5035491;28;20045;-84
2022/06/14 02:20:46;;;;;;;16.40;9.45;;;;;;;;;;5035182;28;20054;-83
2022/06/14 02:23:33;;;;;;;;;;;;;;;;;;5037311;28;20049;-83
2022/06/14 02:26:26;;;;;;;12.05;8.25;;;;;;;;;;5036370;28;19912;-83
2022/06/14 02:29:18;;;;;;;11.38;8.82;;;;;;;;;;5038333;28;20038;-84
2022/06/14 02:32:11;;;;;;;14.25;8.70;;;;;;;;;;5036584;28;20041;-83
2022/06/14 02:35:00;;;;;;;10.47;8.23;;;;;;;;;;5035950;28;20045;-83
2022/06/14 02:38:01;;;;;;;9.48;8.07;;;;;;;;;;5036090;28;20049;-84
2022/06/14 02:41:22;;;;;;;14.60;7.75;;;;;;;;;;5036578;28;20037;-83
2022/06/14 02:44:30;;;;;;;18.17;7.35;;;;;;;;;;5006777;28;20045;-83
2022/06/14 02:47:30;;;;;;;8.95;7.53;;;;;;;;;;5027911;28;20045;-83
2022/06/14 02:50:18;;;;;;;15.05;7.90;;;;;;;;;;5034281;28;20041;-84
2022/06/14 02:53:29;;;;;;;12.25;7.63;;;;;;;;;;5034123;28;20045;-84
2022/06/14 02:56:22;;;;;;;11.52;7.43;;;;;;;;;;5034207;28;20046;-84
2022/06/14 02:59:29;;;;;;;8.98;6.85;;;;;;;;;;5036984;28;20386;-83
2022/06/14 03:02:21;;;;;;;11.15;6.43;;;;;;;;;;5037002;28;20474;-83
2022/06/14 03:05:26;;;;;;;14.02;6.70;;;;;;;;;;5034340;28;20033;-84
2022/06/14 03:08:13;;;;;;;7.30;6.22;;;;;;;;;;5043905;28;20037;-83
2022/06/14 03:11:22;;;;;;;10.55;6.45;;;;;;;;;;5035891;28;20045;-83
2022/06/14 03:14:13;;;;;;;8.40;6.68;;;;;;;;;;5052311;28;20049;-83
2022/06/14 03:43:17;;;;;;;13.25;8.50;;;;;;;;;;5066945;27;1369747;-75
2022/06/14 03:46:27;;;;;;;15.77;8.20;;;;;;;;;;5091175;28;20043;-75
2022/06/14 03:49:17;;;;;;;11.85;7.20;;;;;;;;;;5090971;28;20052;-75
2022/06/14 03:52:13;;;;;;;10.43;6.82;;;;;;;;;;5091474;28;20044;-75
2022/06/14 03:55:20;;;;;;;9.57;6.68;;;;;;;;;;5091368;28;20044;-75
2022/06/14 03:58:15;;;;;;;8.55;6.47;;;;;;;;;;5090490;28;20485;-75
2022/06/14 04:01:11;;;;;;;7.85;6.38;;;;;;;;;;5091070;28;20055;-75
2022/06/14 04:04:17;;;;;;;13.02;5.82;;;;;;;;;;5090907;28;20040;-75
2022/06/14 04:07:33;;;;;;;12.50;5.53;;;;;;;;;;5090802;28;20052;-75
2022/06/14 04:10:43;;;;;;;8.52;6.07;;;;;;;;;;5090738;28;20040;-75
2022/06/14 04:14:00;;;;;;;10.45;6.15;;;;;;;;;;5090729;28;20044;-75
2022/06/14 04:17:09;;;;;;;16.48;8.32;;;;;;;;;;5097649;28;20048;-75
2022/06/14 04:20:04;;;;;;;11.13;8.73;;;;;;;;;;5090988;28;20400;-75
2022/06/14 04:22:52;;;;;;;;;;;;;;;;;;5090746;28;20044;-76
2022/06/14 04:25:56;;;;;;;12.95;7.68;;;;;;;;;;5097023;28;19920;-76
2022/06/14 04:29:01;;;;;;;12.90;8.20;;;;;;;;;;5096744;28;20040;-75
2022/06/14 04:31:56;;;;;;;12.02;6.80;;;;;;;;;;5090366;28;20060;-75
2022/06/14 04:34:51;;;;;;;22.08;7.78;;;;;;;;;;5090431;28;20037;-75
2022/06/14 04:37:41;;;;;;;12.85;6.97;;;;;;;;;;5090435;28;20040;-75
2022/06/14 04:40:34;;;;;;;15.90;6.78;;;;;;;;;;5096943;28;20052;-75
2022/06/14 04:43:36;;;;;;;16.27;6.68;;;;;;;;;;5089525;28;20052;-75
2022/06/14 04:46:31;;;;;;;14.85;6.32;;;;;;;;;;5090050;28;20400;-75
2022/06/14 04:49:28;;;;;;;15.05;4.57;;;;;;;;;;5090095;28;20393;-76
2022/06/14 04:52:27;;;;;;;6.72;3.20;;;;;;;;;;5089819;28;20476;-75
2022/06/14 04:55:23;;;;;;;5.13;3.10;;;;;;;;;;5076504;28;20036;-75
2022/06/14 04:58:27;;;;;;;5.45;2.75;;;;;;;;;;5076252;28;20048;-75
2022/06/14 05:01:25;;;;;;;5.38;2.80;;;;;;;;;;5076331;28;20048;-75
2022/06/14 05:04:24;;;;;;;3.28;2.25;;;;;;;;;;5083213;28;20070;-75
2022/06/14 05:07:28;;;;;;;6.38;2.40;;;;;;;;;;5082869;28;20052;-75
2022/06/14 05:10:21;;;;;;;6.28;2.45;;;;;;;;;;5082852;28;20397;-75
2022/06/14 05:13:22;;;;;;;5.30;2.28;;;;;;;;;;5075147;28;20056;-75
2022/06/14 05:16:12;;;;;;;5.43;2.08;;;;;;;;;;5075590;28;20045;-75
2022/06/14 05:18:57;;;;;;;2.45;2.00;;;;;;;;;;5075973;28;20041;-75
2022/06/14 05:21:52;;;;;;;5.05;2.00;;;;;;;;;;5075764;28;20041;-75
2022/06/14 05:24:39;;;;;;;4.00;1.73;;;;;;;;;;5075887;28;20040;-76
2022/06/14 05:27:34;;;;;;;9.07;2.35;;;;;;;;;;5075900;28;20048;-76
2022/06/14 05:30:23;;;;;;;7.45;2.00;;;;;;;;;;5075552;28;20044;-75
2022/06/14 05:33:37;;;;;;;3.95;1.65;;;;;;;;;;5075320;28;20044;-75
2022/06/14 05:36:29;;;;;;;3.80;1.67;;;;;;;;;;5075158;28;20369;-75
2022/06/14 05:43:04;;;;;;;;;;;;;;;;;;4974337;28;20047;-78
2022/06/14 05:45:57;;;;;;;6.97;1.90;;;;;;;;;;4975464;28;19918;-78
2022/06/14 05:52:26;;;;;;;5.97;2.75;;;;;;;;;;4873549;26;20408;-81
2022/06/14 05:55:24;;;;;;;5.55;1.98;;;;;;;;;;4983376;28;20489;-83
2022/06/14 05:58:17;;;;;;;2.22;1.80;;;;;;;;;;4983038;28;20043;-82
2022/06/14 06:01:45;;;;;;;3.83;1.60;;;;;;;;;;4983094;28;20050;-83
2022/06/14 06:04:40;;;;;;;6.85;1.30;;;;;;;;;;4974835;28;20481;-81
2022/06/14 06:07:31;;;;;;;3.38;1.70;;;;;;;;;;4983192;28;20485;-83
2022/06/14 06:10:38;;;;;;;5.38;1.75;;;;;;;;;;4982353;28;20392;-83
2022/06/14 06:13:30;;;;;;;8.57;1.85;;;;;;;;;;4983133;28;20055;-82
2022/06/14 06:16:33;;;;;;;4.03;1.70;;;;;;;;;;4982995;28;20047;-84
2022/06/14 06:19:45;;;;;;;3.30;1.70;;;;;;;;;;4976301;28;20413;-83
2022/06/14 06:22:46;;;;;;;3.65;2.00;;;;;;;;;;4945452;28;20393;-82
2022/06/14 06:25:37;;;;;;;3.90;1.50;;;;;;;;;;4981559;28;20043;-83
2022/06/14 06:28:35;;;;;;;4.30;1.52;;;;;;;;;;4976140;28;20397;-81
2022/06/14 06:31:27;;;;;;;7.85;2.00;;;;;;;;;;4980834;28;20043;-84
2022/06/14 06:34:15;;;;;;;3.28;1.73;;;;;;;;;;4987059;28;20042;-83
2022/06/14 06:37:21;;;;;;;4.10;1.70;;;;;;;;;;4995379;28;20046;-85
2022/06/14 06:40:12;;;;;;;6.32;1.73;;;;;;;;;;5001996;28;20050;-82
2022/06/14 06:43:09;;;;;;;3.40;2.03;;;;;;;;;;5002173;28;20469;-83
2022/06/14 06:45:56;;;;;;;4.25;1.25;;;;;;;;;;5000649;28;20489;-83
2022/06/14 06:48:49;;;;;;;3.28;1.40;;;;;;;;;;4995044;28;20050;-86
2022/06/14 06:51:43;;;;;;;2.05;1.13;;;;;;;;;;4997285;28;20058;-85
2022/06/14 06:54:38;;;;;;;4.40;2.30;;;;;;;;;;4995166;28;20043;-84
2022/06/14 06:57:25;;;;;;;;;;;;;;;;;;4996150;28;20078;-82
2022/06/14 07:00:14;;;;;;;2.47;1.30;;;;;;;;;;5002639;28;19917;-83
2022/06/14 07:03:06;;;;;;;3.45;0.95;;;;;;;;;;4995256;28;20042;-86
2022/06/14 07:05:59;;;;;;;2.85;1.98;;;;;;;;;;4995680;28;20397;-81
2022/06/14 07:08:55;;;;;;;2.10;1.58;;;;;;;;;;5002132;28;20046;-84
2022/06/14 07:11:52;;;;;;;3.28;1.60;;;;;;;;;;5001680;28;20049;-84
2022/06/14 07:15:12;;;;;;;33.42;23.15;;;;;;;;;;4987874;28;20054;-81
2022/06/14 07:18:24;;;;;;;14.38;5.38;;;;;;;;;;5002246;28;20477;-81
2022/06/14 07:21:15;;;;;;;57.30;37.30;;;;;;;;;;5001826;28;20046;-86
2022/06/14 07:24:12;;;;;;;25.98;18.95;;;;;;;;;;4995854;28;20038;-83
2022/06/14 07:27:06;;;;;;;2.45;1.50;;;;;;;;;;5002714;28;20042;-84
2022/06/14 07:30:05;;;;;;;4.60;1.97;;;;;;;;;;5004206;28;20480;-83
2022/06/14 07:32:55;;;;;;;5.85;1.63;;;;;;;;;;4998188;28;20042;-84
2022/06/14 07:36:13;;;;;;;2.20;1.17;;;;;;;;;;4992547;28;20046;-84
2022/06/14 07:39:09;;;;;;;5.20;1.48;;;;;;;;;;4999992;28;20047;-81
2022/06/14 07:42:11;;;;;;;3.78;1.40;;;;;;;;;;5006956;28;20050;-81
2022/06/14 07:45:07;;;;;;;4.00;1.23;;;;;;;;;;5009292;28;20051;-82
2022/06/14 07:48:17;;;;;;;2.85;1.40;;;;;;;;;;5005793;28;20054;-84
2022/06/14 07:51:03;;;;;;;2.10;1.13;;;;;;;;;;4991858;28;20538;-84
2022/06/14 07:54:00;;;;;;;3.58;1.48;;;;;;;;;;5006345;28;20055;-84
2022/06/14 07:57:14;;;;;;;4.38;1.50;;;;;;;;;;5014025;28;20046;-82
2022/06/14 08:03:47;;;;;;;3.80;1.48;;;;;;;;;;5013601;28;20034;-85
2022/06/14 08:06:38;;;;;;;4.25;1.50;;;;;;;;;;5021387;28;20058;-80
2022/06/14 08:09:44;;;;;;;3.67;0.80;;;;;;;;;;5020610;28;20058;-83
2022/06/14 08:12:52;;;;;;;0.98;0.88;;;;;;;;;;5015092;28;20062;-84
2022/06/14 08:15:42;;;;;;;2.58;1.10;;;;;;;;;;4998134;28;20051;-86
2022/06/14 08:18:38;;;;;;;4.18;1.67;;;;;;;;;;5013388;28;20047;-84
2022/06/14 08:21:46;;;;;;;4.50;1.40;;;;;;;;;;5004544;28;20042;-82
2022/06/14 08:24:44;;;;;;;3.83;1.35;;;;;;;;;;5003361;28;20050;-83
2022/06/14 08:27:34;;;;;;;5.43;1.80;;;;;;;;;;4999263;28;20042;-86
2022/06/14 08:30:39;;;;;;;1.60;1.10;;;;;;;;;;5009882;28;20046;-87
2022/06/14 08:33:55;;;;;;;1.83;1.05;;;;;;;;;;5004843;28;20042;-85
2022/06/14 08:37:01;;;;;;;4.93;1.45;;;;;;;;;;5003054;28;20050;-85
2022/06/14 08:39:52;;;;;;;3.67;1.30;;;;;;;;;;5002084;28;20042;-84
2022/06/14 08:42:41;;;;;;;1.48;1.10;;;;;;;;;;4987315;28;20416;-87
2022/06/14 08:45:45;;;;;;;1.10;0.80;;;;;;;;;;4999054;28;20497;-87
2022/06/14 08:48:41;;;;;;;2.40;1.20;;;;;;;;;;4998298;28;20042;-83
2022/06/14 08:51:41;;;;;;;3.47;1.48;;;;;;;;;;4998283;28;20054;-85
2022/06/14 08:54:48;;;;;;;4.20;1.38;;;;;;;;;;4998341;28;20042;-85
2022/06/14 08:57:57;;;;;;;2.85;0.88;;;;;;;;;;4998226;28;20177;-83
2022/06/14 09:01:04;;;;;;;1.65;1.17;;;;;;;;;;4997644;28;20038;-83
2022/06/14 09:04:14;;;;;;;5.25;1.15;;;;;;;;;;4997324;28;20043;-85
2022/06/14 09:07:02;;;;;;;2.67;1.52;;;;;;;;;;5003711;28;20050;-83
2022/06/14 09:10:23;;;;;;;2.53;1.20;;;;;;;;;;5004234;28;20038;-85
2022/06/14 09:13:41;;;;;;;2.72;1.30;;;;;;;;;;4997163;28;20038;-84
2022/06/14 09:17:00;;;;;;;5.38;1.40;;;;;;;;;;4958918;28;20050;-85
2022/06/14 09:19:57;;;;;;;8.65;1.65;;;;;;;;;;4997243;28;20417;-85
2022/06/14 09:22:55;;;;;;;3.33;1.20;;;;;;;;;;4998058;28;20046;-84
2022/06/14 09:26:02;;;;;;;5.55;1.20;;;;;;;;;;4997950;28;20046;-84
2022/06/14 09:29:21;;;;;;;1.50;1.27;;;;;;;;;;4998895;28;20393;-84
2022/06/14 09:33:09;;;;;;;2.40;1.08;;;;;;;;;;4999142;28;20054;-85
2022/06/14 09:36:08;;;;;;;3.72;1.35;;;;;;;;;;4998433;28;20042;-85
2022/06/14 09:39:11;;;;;;;2.35;1.30;;;;;;;;;;4967969;28;20042;-85
2022/06/14 09:42:17;;;;;;;8.77;1.90;;;;;;;;;;4996924;28;20046;-86
2022/06/14 09:45:18;;;;;;;4.70;1.23;;;;;;;;;;4996990;28;20049;-85
2022/06/14 09:48:23;;;;;;;2.42;1.30;;;;;;;;;;4996544;28;20050;-85
2022/06/14 09:51:36;;;;;;;1.83;1.10;;;;;;;;;;4996663;28;20055;-83
2022/06/14 09:54:55;;;;;;;2.05;1.30;;;;;;;;;;4996500;28;20038;-84
2022/06/14 09:58:16;;;;;;;6.00;1.63;;;;;;;;;;4996655;28;20050;-85
2022/06/14 10:01:23;;;;;;;3.15;1.30;;;;;;;;;;5003383;28;20054;-85
2022/06/14 10:04:36;;;;;;;3.92;1.10;;;;;;;;;;4997479;28;20412;-84
2022/06/14 10:07:37;;;;;;;2.85;1.33;;;;;;;;;;4996169;28;20046;-84
2022/06/14 10:10:38;;;;;;;3.40;1.05;;;;;;;;;;4996302;28;20050;-85
2022/06/14 10:13:36;;;;;;;3.75;1.58;;;;;;;;;;4988488;28;20046;-87
2022/06/14 10:16:47;;;;;;;4.00;1.30;;;;;;;;;;5001204;28;20042;-84
2022/06/14 10:19:33;;;;;;;4.00;1.40;;;;;;;;;;4986956;28;20050;-84
2022/06/14 10:22:36;;;;;;;3.10;1.40;;;;;;;;;;5002692;28;20050;-87
2022/06/14 10:25:22;;;;;;;4.60;1.10;;;;;;;;;;4999100;28;20046;-87
2022/06/14 10:28:31;;;;;;;3.35;1.30;;;;;;;;;;5001958;28;20050;-87
2022/06/14 10:31:32;;;;;;;1.98;1.50;;;;;;;;;;4996320;28;20477;-88
2022/06/14 10:34:17;;;;;;;3.90;1.30;;;;;;;;;;4996713;28;20050;-87
2022/06/14 10:37:03;;;;;;;3.88;1.30;;;;;;;;;;4995205;28;20042;-88
2022/06/14 10:40:06;;;;;;;4.38;2.10;;;;;;;;;;4996552;28;20047;-85
2022/06/14 10:43:00;;;;;;;6.82;1.67;;;;;;;;;;4996934;28;20042;-85
2022/06/14 10:45:59;;;;;;;6.00;1.67;;;;;;;;;;4988363;28;20393;-89
2022/06/14 10:49:05;;;;;;;3.38;1.50;;;;;;;;;;4997582;28;20050;-87
2022/06/14 10:52:14;;;;;;;2.42;1.30;;;;;;;;;;4996048;28;20050;-87
2022/06/14 10:55:17;;;;;;;3.05;1.40;;;;;;;;;;4975263;28;20046;-85
2022/06/14 10:58:34;;;;;;;4.65;1.30;;;;;;;;;;4996485;28;20042;-84
2022/06/14 11:01:28;;;;;;;6.93;1.73;;;;;;;;;;5002470;28;20392;-85
2022/06/14 11:04:24;;;;;;;5.65;1.33;;;;;;;;;;4987694;28;20046;-88
2022/06/14 11:07:40;;;;;;;2.47;1.50;;;;;;;;;;4994732;28;20046;-86
2022/06/14 11:10:45;;;;;;;2.83;1.17;;;;;;;;;;5002063;28;20042;-85
2022/06/14 11:14:07;;;;;;;5.95;1.48;;;;;;;;;;5002153;28;20046;-86
2022/06/14 11:17:06;;;;;;;5.65;1.20;;;;;;;;;;4995316;28;20050;-86
2022/06/14 11:20:33;;;;;;;3.85;1.33;;;;;;;;;;4995097;28;20050;-84
2022/06/14 11:23:24;;;;;;;2.58;1.40;;;;;;;;;;4976913;28;20039;-85
2022/06/14 11:26:26;;;;;;;6.35;1.15;;;;;;;;;;5001615;28;20050;-86
2022/06/14 11:29:23;;;;;;;3.05;1.13;;;;;;;;;;4996094;28;20035;-83
2022/06/14 11:32:32;;;;;;;6.93;1.10;;;;;;;;;;5002970;28;20046;-85
2022/06/14 11:35:38;;;;;;;0.70;0.70;;;;;;;;;;4994713;28;20042;-86
2022/06/14 11:38:50;;;;;;;3.42;1.27;;;;;;;;;;5002228;28;20058;-84
2022/06/14 11:41:42;;;;;;;8.70;1.35;;;;;;;;;;4971727;28;20473;-85
2022/06/14 11:44:30;;;;;;;;;;;;;;;;;;4995526;28;20042;-85
2022/06/14 11:47:35;;;;;;;;;;;;;;;;;;4995170;28;19921;-84
2022/06/14 11:50:58;;;;;;;3.55;1.27;;;;;;;;;;5000158;28;19917;-86
2022/06/14 11:53:54;;;;;;;2.28;0.98;;;;;;;;;;4979973;28;20050;-84
2022/06/14 11:56:51;;;;;;;1.17;0.82;;;;;;;;;;4994719;28;20042;-85
2022/06/14 11:59:46;;;;;;;2.33;0.98;;;;;;;;;;4994875;28;20046;-83
2022/06/14 12:02:41;;;;;;;2.80;1.23;;;;;;;;;;4994468;28;20042;-83
2022/06/14 12:05:44;;;;;;;3.10;1.00;;;;;;;;;;4998647;28;20050;-83
2022/06/14 12:09:07;;;;;;;2.97;1.17;;;;;;;;;;4997442;28;20051;-83
2022/06/14 12:12:18;;;;;;;4.38;1.00;;;;;;;;;;5005288;28;20046;-84
2022/06/14 12:15:15;;;;;;;2.95;1.23;;;;;;;;;;5004401;28;20046;-88
2022/06/14 12:18:03;;;;;;;2.08;1.10;;;;;;;;;;4990099;28;20042;-85
2022/06/14 12:20:57;;;;;;;1.38;0.80;;;;;;;;;;4989825;28;20046;-86
2022/06/14 12:23:47;;;;;;;1.80;0.88;;;;;;;;;;4997854;28;20477;-86
2022/06/14 12:26:44;;;;;;;1.80;0.93;;;;;;;;;;5004067;28;20046;-83
2022/06/14 12:29:39;;;;;;;3.50;1.02;;;;;;;;;;4996984;28;20051;-85
2022/06/14 12:32:54;;;;;;;2.75;0.98;;;;;;;;;;4998388;28;20485;-85
2022/06/14 12:35:53;;;;;;;3.58;0.98;;;;;;;;;;4991775;28;20393;-83
2022/06/14 12:38:41;;;;;;;2.13;1.00;;;;;;;;;;4997897;28;20054;-85
2022/06/14 12:41:32;;;;;;;3.33;1.13;;;;;;;;;;4998060;28;20469;-84
2022/06/14 12:44:27;;;;;;;2.58;0.98;;;;;;;;;;4999571;28;20042;-83
2022/06/14 12:47:16;;;;;;;;;;;;;;;;;;5011308;28;20043;-84
2022/06/14 12:50:28;;;;;;;1.35;1.00;;;;;;;;;;5003009;28;20253;-84
2022/06/14 12:53:32;;;;;;;1.52;1.33;;;;;;;;;;5003261;28;20058;-83
2022/06/14 12:56:36;;;;;;;1.42;0.95;;;;;;;;;;5004743;28;20046;-85
2022/06/14 12:59:41;;;;;;;2.85;1.20;;;;;;;;;;5005504;28;20046;-83
2022/06/14 13:02:40;;;;;;;4.20;1.40;;;;;;;;;;5011649;28;20050;-83
2022/06/14 13:05:34;;;;;;;1.95;1.05;;;;;;;;;;5001355;28;20050;-86
2022/06/14 13:08:33;;;;;;;5.18;1.23;;;;;;;;;;4997651;28;20042;-86
2022/06/14 13:11:39;;;;;;;3.05;1.30;;;;;;;;;;5004216;28;20481;-84
2022/06/14 13:15:04;;;;;;;5.38;1.30;;;;;;;;;;5004437;28;20397;-87
2022/06/14 13:18:13;;;;;;;2.28;1.20;;;;;;;;;;4993207;28;20054;-84
2022/06/14 13:21:07;;;;;;;2.85;1.30;;;;;;;;;;4997068;28;20485;-83
2022/06/14 13:24:17;;;;;;;3.38;1.42;;;;;;;;;;4996899;28;20042;-88
2022/06/14 13:27:02;;;;;;;2.72;1.27;;;;;;;;;;4997241;28;20054;-84
2022/06/14 13:30:14;;;;;;;3.80;1.50;;;;;;;;;;5003818;28;20050;-85
2022/06/14 13:33:28;;;;;;;2.22;1.40;;;;;;;;;;5003367;28;20054;-84
2022/06/14 13:36:45;;;;;;;3.65;1.60;;;;;;;;;;5004121;28;20054;-87
2022/06/14 13:39:46;;;;;;;3.45;1.52;;;;;;;;;;5002879;28;20050;-84
2022/06/14 13:42:37;;;;;;;3.17;1.27;;;;;;;;;;5003163;28;20038;-85
2022/06/14 13:45:38;;;;;;;2.35;1.30;;;;;;;;;;4996642;28;20042;-83
2022/06/14 13:49:15;;;;;;;2.72;1.58;;;;;;;;;;5002349;28;20050;-84
2022/06/14 13:52:15;;;;;;;4.53;1.52;;;;;;;;;;4997503;28;20046;-85
2022/06/14 13:55:18;;;;;;;1.30;0.90;;;;;;;;;;4988061;28;20042;-85
2022/06/14 13:58:12;;;;;;;4.20;1.50;;;;;;;;;;5002795;28;20050;-85
2022/06/14 14:01:07;;;;;;;2.17;1.35;;;;;;;;;;5001402;28;20050;-86
2022/06/14 14:04:11;;;;;;;4.93;1.73;;;;;;;;;;4995397;28;20039;-84
2022/06/14 14:07:51;;;;;;;3.10;1.25;;;;;;;;;;5002489;28;20046;-85
2022/06/14 14:10:56;;;;;;;3.63;1.63;;;;;;;;;;4936325;29;20052;-84
2022/06/14 14:13:47;;;;;;;2.47;1.48;;;;;;;;;;4996154;28;20046;-85
2022/06/14 14:16:44;;;;;;;3.95;1.80;;;;;;;;;;4995351;28;20397;-84
2022/06/14 14:20:07;;;;;;;5.40;1.55;;;;;;;;;;5001509;28;20050;-84
2022/06/14 14:23:16;;;;;;;2.97;1.30;;;;;;;;;;5001228;28;20046;-83
2022/06/14 14:26:14;;;;;;;4.70;1.65;;;;;;;;;;4995566;28;20042;-85
2022/06/14 14:29:11;;;;;;;2.88;1.48;;;;;;;;;;5002291;28;20046;-83
2022/06/14 14:32:24;;;;;;;1.88;1.10;;;;;;;;;;4996307;28;20047;-85
2022/06/14 14:35:59;;;;;;;5.70;1.73;;;;;;;;;;4994962;28;20050;-83
2022/06/14 14:38:57;;;;;;;5.13;1.58;;;;;;;;;;4991792;28;20054;-84
2022/06/14 14:41:51;;;;;;;4.80;1.63;;;;;;;;;;4996258;28;20042;-85
2022/06/14 14:44:45;;;;;;;3.25;1.60;;;;;;;;;;5003479;28;20489;-86
2022/06/14 14:47:39;;;;;;;5.32;1.80;;;;;;;;;;4997042;28;20046;-84
2022/06/14 14:50:51;;;;;;;4.28;1.55;;;;;;;;;;4999831;28;20043;-85
2022/06/14 14:53:45;;;;;;;3.45;1.50;;;;;;;;;;5001814;28;20054;-84
2022/06/14 14:56:40;;;;;;;4.15;1.42;;;;;;;;;;4994846;28;20046;-84
2022/06/14 14:59:36;;;;;;;4.18;1.55;;;;;;;;;;4995335;28;20050;-84
2022/06/14 15:06:00;;;;;;;2.97;1.27;;;;;;;;;;4993032;28;20478;-84
2022/06/14 15:08:52;;;;;;;3.55;1.30;;;;;;;;;;4995744;28;20058;-84
2022/06/14 15:11:52;;;;;;;3.03;1.42;;;;;;;;;;5014508;28;20050;-85
2022/06/14 15:14:39;;;;;;;5.38;1.42;;;;;;;;;;4999605;28;20046;-82
2022/06/14 15:19:54;;;;;;;4.20;1.80;;;;;;;;;;5001604;28;20054;-83
2022/06/14 15:20:58;;;;;;;3.40;1.60;;;;;;;;;;4988163;28;20043;-82
2022/06/14 15:23:48;;;;;;;7.78;1.80;;;;;;;;;;4992847;28;20042;-85
2022/06/14 15:26:33;;;;;;;5.32;1.60;;;;;;;;;;4981669;28;20054;-84
2022/06/14 15:29:45;;;;;;;3.90;1.90;;;;;;;;;;4981649;28;20397;-86
2022/06/14 15:32:32;;;;;;;2.38;1.40;;;;;;;;;;4993997;28;20042;-83
2022/06/14 15:35:25;;;;;;;4.95;1.70;;;;;;;;;;4995200;28;20046;-86
2022/06/14 15:38:12;;;;;;;5.10;1.60;;;;;;;;;;4984739;28;20053;-83
2022/06/14 15:41:16;;;;;;;4.97;1.42;;;;;;;;;;4988798;28;20058;-83
2022/06/14 15:44:17;;;;;;;6.47;2.00;;;;;;;;;;4998291;28;20403;-83
2022/06/14 15:47:02;;;;;;;2.53;1.10;;;;;;;;;;4995642;28;20424;-87
2022/06/14 15:49:49;;;;;;;4.72;1.40;;;;;;;;;;4994634;28;20492;-83
2022/06/14 15:52:49;;;;;;;4.47;1.65;;;;;;;;;;4988544;28;20042;-86
2022/06/14 15:55:36;;;;;;;4.43;1.50;;;;;;;;;;4995126;28;20050;-83
2022/06/14 15:58:32;;;;;;;2.72;1.67;;;;;;;;;;5001804;28;20425;-88
2022/06/14 16:01:26;;;;;;;3.83;1.65;;;;;;;;;;4994528;28;20054;-87
2022/06/14 16:04:33;;;;;;;4.72;1.50;;;;;;;;;;4991741;28;20055;-85
2022/06/14 16:08:12;;;;;;;4.72;2.00;;;;;;;;;;4986719;28;20050;-88
2022/06/14 16:11:06;;;;;;;7.63;2.17;;;;;;;;;;4999270;28;20054;-86
2022/06/14 16:13:55;;;;;;;;;;;;;;;;;;4994353;28;20497;-86
2022/06/14 16:16:45;;;;;;;4.85;1.77;;;;;;;;;;5001406;28;20352;-85
2022/06/14 16:19:41;;;;;;;5.22;1.50;;;;;;;;;;4989324;28;20046;-85
2022/06/14 16:22:28;;;;;;;3.60;1.52;;;;;;;;;;4994541;28;20050;-84
2022/06/14 16:25:37;;;;;;;3.97;1.80;;;;;;;;;;4995315;28;20042;-86
2022/06/14 16:28:45;;;;;;;2.45;1.50;;;;;;;;;;5002628;28;20054;-86
2022/06/14 16:32:01;;;;;;;2.40;1.60;;;;;;;;;;4995201;28;20039;-86
2022/06/14 16:34:46;;;;;;;6.18;1.70;;;;;;;;;;4994414;28;20055;-84
2022/06/14 16:38:18;;;;;;;9.20;2.00;;;;;;;;;;5000440;28;20050;-84
2022/06/14 16:41:07;;;;;;;3.35;1.70;;;;;;;;;;4986698;28;20401;-85
2022/06/14 16:44:01;;;;;;;6.45;1.88;;;;;;;;;;4993971;28;20405;-86
2022/06/14 16:46:49;;;;;;;;;;;;;;;;;;5000600;28;20441;-86
2022/06/14 16:50:04;;;;;;;7.28;1.75;;;;;;;;;;5008031;28;19918;-84
2022/06/14 16:53:04;;;;;;;4.35;1.80;;;;;;;;;;5002764;28;20050;-83
2022/06/14 16:55:52;;;;;;;3.55;1.65;;;;;;;;;;5008005;28;20038;-85
2022/06/14 16:58:46;;;;;;;3.13;1.45;;;;;;;;;;4993709;28;20046;-87
2022/06/14 17:02:11;;;;;;;6.28;1.58;;;;;;;;;;5001201;28;20054;-86
2022/06/14 17:05:27;;;;;;;4.77;1.70;;;;;;;;;;4987158;28;20046;-84
2022/06/14 17:08:43;;;;;;;5.45;1.38;;;;;;;;;;5001458;28;20393;-84
2022/06/14 17:11:45;;;;;;;2.90;1.60;;;;;;;;;;5003066;28;20042;-84
2022/06/14 17:14:40;;;;;;;3.58;1.77;;;;;;;;;;5010452;28;20054;-84
2022/06/14 17:17:42;;;;;;;4.60;1.63;;;;;;;;;;5007583;28;20485;-85
2022/06/14 17:20:39;;;;;;;7.82;2.00;;;;;;;;;;5002688;28;20054;-88
2022/06/14 17:23:39;;;;;;;2.72;1.77;;;;;;;;;;5003047;28;20038;-85
2022/06/14 17:32:43;;;;;;;3.40;1.60;;;;;;;;;;4997184;28;20050;-85
2022/06/14 17:35:32;;;;;;;4.70;1.65;;;;;;;;;;5001505;28;20042;-86
2022/06/14 17:38:27;;;;;;;3.47;1.85;;;;;;;;;;5002229;28;20054;-87
2022/06/14 17:41:24;;;;;;;6.18;2.17;;;;;;;;;;5009631;28;20338;-85
2022/06/14 17:44:15;;;;;;;8.05;1.80;;;;;;;;;;5002088;28;20465;-87
2022/06/14 17:47:09;;;;;;;7.28;2.15;;;;;;;;;;5004752;28;20050;-87
2022/06/14 17:50:23;;;;;;;5.85;2.28;;;;;;;;;;5003497;28;20049;-82
2022/06/14 17:53:16;;;;;;;8.45;2.03;;;;;;;;;;5007250;28;20046;-84
2022/06/14 17:56:15;;;;;;;6.80;2.30;;;;;;;;;;5010378;28;20038;-86
2022/06/14 17:59:16;;;;;;;10.55;2.40;;;;;;;;;;5003471;28;20046;-85
2022/06/14 18:02:10;;;;;;;10.20;2.72;;;;;;;;;;5011028;28;20046;-85
2022/06/14 18:04:57;;;;;;;;;;;;;;;;;;4996855;28;20043;-85
2022/06/14 18:07:53;;;;;;;7.00;2.30;;;;;;;;;;4997314;28;20352;-84
2022/06/14 18:10:46;;;;;;;6.22;2.17;;;;;;;;;;5003029;28;20042;-84
2022/06/14 18:13:41;;;;;;;11.18;2.20;;;;;;;;;;4995971;28;20046;-82
2022/06/14 18:16:33;;;;;;;7.55;2.30;;;;;;;;;;4995788;28;20042;-82
2022/06/14 18:22:41;;;;;;;15.35;2.30;;;;;;;;;;5006441;28;20043;-82
2022/06/14 18:25:52;;;;;;;10.40;2.50;;;;;;;;;;5003787;28;20046;-82
2022/06/14 18:28:41;;;;;;;15.27;4.10;;;;;;;;;;5002841;28;20046;-86
2022/06/14 18:31:42;;;;;;;7.75;3.00;;;;;;;;;;4995428;28;20051;-84
2022/06/14 18:34:55;;;;;;;9.35;3.10;;;;;;;;;;5001733;28;20054;-85
2022/06/14 18:37:48;;;;;;;7.05;3.65;;;;;;;;;;4995079;28;20046;-83
2022/06/14 18:40:37;;;;;;;8.30;3.08;;;;;;;;;;4995447;28;20393;-83
2022/06/14 18:43:23;;;;;;;7.60;2.97;;;;;;;;;;4997799;28;20050;-85
2022/06/14 18:46:31;;;;;;;7.93;2.63;;;;;;;;;;4994992;28;20046;-85
2022/06/14 18:49:38;;;;;;;6.07;2.78;;;;;;;;;;4998058;28;20038;-84
2022/06/14 18:52:32;;;;;;;12.13;2.30;;;;;;;;;;5002484;28;20046;-83